createdAt,value
2023-06-02T00:00:45.872Z,4.73
2023-06-02T00:03:15.323Z,4.83
2023-06-02T00:05:45.729Z,4.63
2023-06-02T00:08:19.051Z,3.93
2023-06-02T00:10:47.079Z,4.70
2023-06-02T00:13:15.065Z,4.87
2023-06-02T00:15:44.254Z,4.63
2023-06-02T00:18:12.295Z,4.30
2023-06-02T00:20:40.380Z,4.50
2023-06-02T00:23:09.794Z,4.77
2023-06-02T00:25:41.202Z,3.90
2023-06-02T00:28:09.284Z,5.30
2023-06-02T00:30:37.392Z,5.50
2023-06-02T00:33:05.667Z,5.43
2023-06-02T00:35:33.774Z,5.90
2023-06-02T00:38:05.502Z,5.30
2023-06-02T00:40:34.062Z,5.60
2023-06-02T00:43:03.654Z,5.60
2023-06-02T00:45:31.708Z,5.90
2023-06-02T00:48:02.095Z,5.70
2023-06-02T00:50:30.112Z,5.70
2023-06-02T00:52:59.355Z,6.13
2023-06-02T00:55:30.299Z,6.10
2023-06-02T00:57:59.883Z,5.33
2023-06-02T01:00:34.204Z,5.53
2023-06-02T01:03:04.153Z,4.83
2023-06-02T01:05:33.054Z,4.83
2023-06-02T01:08:04.807Z,5.30
2023-06-02T01:10:33.648Z,5.30
2023-06-02T01:13:01.883Z,4.73
2023-06-02T01:15:31.201Z,4.60
2023-06-02T01:18:00.679Z,5.20
2023-06-02T01:20:29.888Z,4.70
2023-06-02T01:23:02.881Z,5.30
2023-06-02T01:25:33.539Z,4.80
2023-06-02T01:28:03.804Z,4.90
2023-06-02T01:30:32.837Z,4.60
2023-06-02T01:33:11.436Z,4.40
2023-06-02T01:35:45.422Z,3.37
2023-06-02T01:38:15.109Z,4.40
2023-06-02T01:40:45.094Z,3.80
2023-06-02T01:43:14.964Z,3.70
2023-06-02T01:45:43.943Z,3.30
2023-06-02T01:48:12.207Z,3.80
2023-06-02T01:50:40.674Z,3.70
2023-06-02T01:53:08.777Z,3.67
2023-06-02T01:55:37.112Z,3.73
2023-06-02T01:58:06.683Z,3.97
2023-06-02T02:00:34.566Z,3.70
2023-06-02T02:03:03.644Z,3.43
2023-06-02T02:05:31.767Z,4.20
2023-06-02T02:07:59.676Z,4.20
2023-06-02T02:10:27.575Z,4.03
2023-06-02T02:12:55.626Z,4.43
2023-06-02T02:15:24.937Z,3.67
2023-06-02T02:17:54.005Z,4.07
2023-06-02T02:20:22.987Z,4.63
2023-06-02T02:22:50.864Z,3.87
2023-06-02T02:25:18.841Z,3.77
2023-06-02T02:27:46.777Z,4.30
2023-06-02T02:30:15.158Z,3.77
2023-06-02T02:32:46.381Z,3.87
2023-06-02T02:35:14.547Z,3.83
2023-06-02T02:37:47.325Z,4.00
2023-06-02T02:40:16.223Z,4.20
2023-06-02T02:42:44.300Z,3.43
2023-06-02T02:45:12.581Z,4.30
2023-06-02T02:47:40.519Z,4.00
2023-06-02T02:50:10.733Z,3.63
2023-06-02T02:52:39.162Z,3.80
2023-06-02T02:55:08.213Z,4.47
2023-06-02T02:57:36.099Z,3.80
2023-06-02T03:00:06.224Z,3.70
2023-06-02T03:02:34.111Z,3.80
2023-06-02T03:05:03.890Z,3.67
2023-06-02T03:07:33.168Z,3.63
2023-06-02T03:10:01.086Z,3.40
2023-06-02T03:12:29.072Z,4.47
2023-06-02T03:14:57.028Z,3.60
2023-06-02T03:17:25.041Z,3.70
2023-06-02T03:19:53.092Z,3.53
2023-06-02T03:22:21.467Z,4.10
2023-06-02T03:24:51.798Z,3.50
2023-06-02T03:27:20.326Z,3.70
2023-06-02T03:29:48.353Z,4.20
2023-06-02T03:32:16.336Z,3.30
2023-06-02T03:34:45.921Z,4.30
2023-06-02T03:37:14.309Z,3.90
2023-06-02T03:39:42.232Z,4.03
2023-06-02T03:42:11.578Z,3.73
2023-06-02T03:44:39.503Z,3.80
2023-06-02T03:47:08.227Z,3.70
2023-06-02T03:49:37.462Z,3.87
2023-06-02T03:52:06.522Z,4.10
2023-06-02T03:54:34.667Z,3.80
2023-06-02T03:57:02.578Z,4.07
2023-06-02T03:59:32.555Z,4.10
2023-06-02T04:02:00.511Z,4.47
2023-06-02T04:04:28.792Z,4.57
2023-06-02T04:06:58.253Z,4.67
2023-06-02T04:09:26.192Z,4.50
2023-06-02T04:11:54.076Z,4.77
2023-06-02T04:14:22.242Z,4.47
2023-06-02T04:16:51.575Z,4.20
2023-06-02T04:19:19.630Z,4.30
2023-06-02T04:21:47.549Z,4.73
2023-06-02T04:24:15.632Z,5.40
2023-06-02T04:26:43.548Z,5.47
2023-06-02T04:29:11.902Z,5.17
2023-06-02T04:31:40.883Z,4.93
2023-06-02T04:34:10.174Z,4.80
2023-06-02T04:36:38.952Z,5.10
2023-06-02T04:39:08.375Z,4.70
2023-06-02T04:41:37.305Z,5.47
2023-06-02T04:44:07.147Z,5.30
2023-06-02T04:46:36.556Z,4.80
2023-06-02T04:49:08.786Z,4.77
2023-06-02T04:51:39.266Z,5.73
2023-06-02T04:54:07.424Z,4.60
2023-06-02T04:56:37.420Z,4.73
2023-06-02T04:59:05.481Z,4.50
2023-06-02T05:01:34.453Z,4.93
2023-06-02T05:04:02.480Z,4.57
2023-06-02T05:06:31.379Z,4.73
2023-06-02T05:09:01.460Z,4.57
2023-06-02T05:11:29.340Z,4.27
2023-06-02T05:13:57.568Z,4.17
2023-06-02T05:16:25.692Z,4.70
2023-06-02T05:18:53.701Z,4.60
2023-06-02T05:21:23.940Z,4.53
2023-06-02T05:23:51.901Z,4.00
2023-06-02T05:26:21.214Z,4.10
2023-06-02T05:28:51.731Z,3.40
2023-06-02T05:31:19.933Z,5.00
2023-06-02T05:33:48.179Z,4.00
2023-06-02T05:36:16.152Z,4.13
2023-06-02T05:38:45.406Z,3.60
2023-06-02T05:41:13.454Z,4.00
2023-06-02T05:43:42.730Z,4.27
2023-06-02T05:46:10.625Z,4.40
2023-06-02T05:48:38.477Z,4.47
2023-06-02T05:51:06.414Z,4.20
2023-06-02T05:53:34.560Z,4.07
2023-06-02T05:56:02.550Z,3.47
2023-06-02T05:58:30.706Z,3.83
2023-06-02T06:01:00.043Z,4.07
2023-06-02T06:03:28.030Z,3.87
2023-06-02T06:05:56.016Z,4.17
2023-06-02T06:08:23.905Z,3.70
2023-06-02T06:10:52.131Z,4.20
2023-06-02T06:13:20.087Z,4.27
2023-06-02T06:15:49.096Z,4.10
2023-06-02T06:18:20.459Z,3.63
2023-06-02T06:20:48.419Z,3.83
2023-06-02T06:23:16.627Z,3.80
2023-06-02T06:25:44.680Z,4.30
2023-06-02T06:28:12.685Z,4.90
2023-06-02T06:30:41.204Z,4.10
2023-06-02T06:33:10.258Z,5.00
2023-06-02T06:35:39.572Z,4.30
2023-06-02T06:38:07.500Z,4.60
2023-06-02T06:40:35.363Z,4.70
2023-06-02T06:43:14.983Z,4.53
2023-06-02T06:45:43.550Z,4.70
2023-06-02T06:48:12.371Z,4.10
2023-06-02T06:50:41.646Z,3.93
2023-06-02T06:53:12.331Z,4.27
2023-06-02T06:55:40.240Z,3.80
2023-06-02T06:58:08.136Z,4.00
2023-06-02T07:00:35.984Z,4.27
2023-06-02T07:03:04.026Z,3.43
2023-06-02T07:05:32.188Z,4.17
2023-06-02T07:08:01.471Z,3.90
2023-06-02T07:10:29.354Z,4.53
2023-06-02T07:12:57.475Z,4.70
2023-06-02T07:15:25.377Z,4.40
2023-06-02T07:17:53.265Z,4.93
2023-06-02T07:20:21.210Z,5.17
2023-06-02T07:22:49.194Z,4.87
2023-06-02T07:25:18.464Z,5.13
2023-06-02T07:27:46.413Z,4.07
2023-06-02T07:30:14.828Z,4.63
2023-06-02T07:32:42.782Z,4.43
2023-06-02T07:35:10.898Z,3.93
2023-06-02T07:37:38.809Z,4.47
2023-06-02T07:40:08.153Z,4.70
2023-06-02T07:42:37.374Z,4.33
2023-06-02T07:45:05.811Z,4.43
2023-06-02T07:47:34.043Z,3.80
2023-06-02T07:50:02.163Z,4.40
2023-06-02T07:52:30.248Z,4.67
2023-06-02T07:54:58.096Z,4.90
2023-06-02T07:57:25.976Z,4.10
2023-06-02T07:59:56.133Z,5.00
2023-06-02T08:02:24.153Z,4.33
2023-06-02T08:04:52.284Z,5.17
2023-06-02T08:07:20.238Z,4.37
2023-06-02T08:09:48.072Z,4.67
2023-06-02T08:12:15.995Z,4.37
2023-06-02T08:14:44.277Z,4.27
2023-06-02T08:17:13.580Z,4.60
2023-06-02T08:19:41.421Z,4.83
2023-06-02T08:22:10.937Z,4.80
2023-06-02T08:24:39.206Z,4.30
2023-06-02T08:27:09.470Z,4.07
2023-06-02T08:29:37.332Z,4.73
2023-06-02T08:32:05.884Z,4.00
2023-06-02T08:34:35.142Z,4.60
2023-06-02T08:37:03.119Z,4.80
2023-06-02T08:39:31.420Z,4.20
2023-06-02T08:42:02.963Z,4.37
2023-06-02T08:44:31.057Z,4.70
2023-06-02T08:46:59.839Z,4.77
2023-06-02T08:49:29.724Z,4.93
2023-06-02T08:52:07.507Z,5.37
2023-06-02T08:54:36.861Z,4.50
2023-06-02T08:57:06.237Z,4.97
2023-06-02T08:59:34.308Z,4.83
2023-06-02T09:02:02.537Z,5.23
2023-06-02T09:04:30.763Z,4.67
2023-06-02T09:07:21.070Z,5.07
2023-06-02T09:09:51.363Z,4.43
2023-06-02T09:12:19.982Z,4.77
2023-06-02T09:14:49.240Z,4.70
2023-06-02T09:17:28.636Z,4.73
2023-06-02T09:19:58.333Z,4.73
2023-06-02T09:22:27.974Z,4.77
2023-06-02T09:24:56.208Z,4.83
2023-06-02T09:27:25.636Z,5.70
2023-06-02T09:30:00.312Z,4.80
2023-06-02T09:32:28.523Z,4.73
2023-06-02T09:34:56.610Z,4.47
2023-06-02T09:37:24.981Z,4.80
2023-06-02T09:39:54.482Z,4.67
2023-06-02T09:42:23.172Z,4.30
2023-06-02T09:45:04.860Z,4.33
2023-06-02T09:47:39.356Z,4.63
2023-06-02T09:50:08.208Z,4.47
2023-06-02T09:52:38.256Z,4.67
2023-06-02T09:55:09.626Z,4.43
2023-06-02T09:57:38.641Z,5.30
2023-06-02T10:00:12.862Z,4.67
2023-06-02T10:02:40.994Z,4.80
2023-06-02T10:05:09.400Z,4.50
2023-06-02T10:07:49.488Z,4.80
2023-06-02T10:10:29.108Z,4.30
2023-06-02T10:13:13.575Z,5.03
2023-06-02T10:15:51.660Z,4.40
2023-06-02T10:18:49.077Z,4.80
2023-06-02T10:21:26.264Z,4.47
2023-06-02T10:24:07.043Z,5.23
2023-06-02T10:26:50.061Z,4.43
2023-06-02T10:29:18.616Z,4.73
2023-06-02T10:31:46.774Z,4.37
2023-06-02T10:34:38.634Z,5.10
2023-06-02T10:37:16.783Z,4.70
2023-06-02T10:39:53.611Z,4.67
2023-06-02T10:42:24.439Z,5.13
2023-06-02T10:44:53.994Z,4.50
2023-06-02T10:47:40.350Z,4.67
2023-06-02T10:50:15.195Z,4.77
2023-06-02T10:53:11.150Z,4.73
2023-06-02T10:55:42.385Z,4.10
2023-06-02T10:58:14.222Z,4.90
2023-06-02T11:00:48.124Z,4.77
2023-06-02T11:03:33.728Z,5.50
2023-06-02T11:06:21.615Z,4.90
2023-06-02T11:08:50.737Z,5.57
2023-06-02T11:11:54.091Z,5.07
2023-06-02T11:14:23.692Z,5.10
2023-06-02T11:17:29.143Z,5.80
2023-06-02T11:19:58.551Z,5.10
2023-06-02T11:22:26.675Z,5.17
2023-06-02T11:24:54.938Z,5.73
2023-06-02T11:27:37.299Z,6.40
2023-06-02T11:30:09.310Z,5.93
2023-06-02T11:32:37.617Z,6.00
2023-06-02T11:35:08.611Z,5.83
2023-06-02T11:37:37.680Z,5.30
2023-06-02T11:40:08.290Z,5.63
2023-06-02T11:42:37.660Z,5.27
2023-06-02T11:45:08.396Z,5.77
2023-06-02T11:47:36.712Z,5.43
2023-06-02T11:50:04.890Z,5.27
2023-06-02T11:52:39.216Z,5.67
2023-06-02T11:55:08.154Z,5.33
2023-06-02T11:57:36.176Z,6.60
2023-06-02T12:00:13.370Z,6.33
2023-06-02T12:02:45.097Z,5.93
2023-06-02T12:05:30.645Z,5.73
2023-06-02T12:07:58.920Z,6.37
2023-06-02T12:10:33.633Z,6.03
2023-06-02T12:13:03.886Z,7.10
2023-06-02T12:15:34.961Z,7.30
2023-06-02T12:18:04.188Z,7.37
2023-06-02T12:20:41.091Z,6.50
2023-06-02T12:23:10.704Z,7.00
2023-06-02T12:25:39.507Z,6.07
2023-06-02T12:28:15.224Z,5.33
2023-06-02T12:30:49.383Z,4.80
2023-06-02T12:33:17.473Z,5.27
2023-06-02T12:35:46.276Z,5.40
2023-06-02T12:38:14.340Z,5.50
2023-06-02T12:40:42.198Z,5.40
2023-06-02T12:43:10.100Z,4.93
2023-06-02T12:45:38.128Z,4.70
2023-06-02T12:48:07.448Z,5.53
2023-06-02T12:50:35.473Z,4.43
2023-06-02T12:53:03.316Z,4.30
2023-06-02T12:55:31.405Z,4.23
2023-06-02T12:57:59.356Z,4.80
2023-06-02T13:00:27.619Z,5.00
2023-06-02T13:02:55.599Z,4.23
2023-06-02T13:05:25.555Z,3.70
2023-06-02T13:07:53.656Z,4.10
2023-06-02T13:10:21.633Z,3.83
2023-06-02T13:12:49.528Z,4.00
2023-06-02T13:15:17.704Z,4.17
2023-06-02T13:17:45.674Z,4.13
2023-06-02T13:20:14.045Z,4.00
2023-06-02T13:22:43.349Z,4.47
2023-06-02T13:25:11.362Z,4.37
2023-06-02T13:27:42.875Z,4.20
2023-06-02T13:30:12.261Z,3.97
2023-06-02T13:32:40.209Z,3.70
2023-06-02T13:35:08.950Z,4.13
2023-06-02T13:37:38.012Z,4.17
2023-06-02T13:40:08.624Z,4.83
2023-06-02T13:42:36.481Z,4.00
2023-06-02T13:45:04.547Z,4.63
2023-06-02T13:47:32.467Z,4.13
2023-06-02T13:50:00.416Z,4.43
2023-06-02T13:52:28.599Z,4.77
2023-06-02T13:54:56.656Z,4.53
2023-06-02T13:57:26.018Z,4.60
2023-06-02T13:59:53.910Z,5.23
2023-06-02T14:02:22.343Z,4.33
2023-06-02T14:04:50.634Z,4.20
2023-06-02T14:07:18.702Z,4.83
2023-06-02T14:09:47.083Z,5.20
2023-06-02T14:12:14.979Z,5.13
2023-06-02T14:14:44.261Z,5.03
2023-06-02T14:17:12.126Z,4.87
2023-06-02T14:19:40.099Z,4.67
2023-06-02T14:22:08.258Z,5.60
2023-06-02T14:24:36.179Z,4.90
2023-06-02T14:27:04.164Z,4.60
2023-06-02T14:29:32.067Z,5.40
2023-06-02T14:32:01.487Z,5.27
2023-06-02T14:34:29.757Z,5.13
2023-06-02T14:36:57.935Z,4.43
2023-06-02T14:39:26.285Z,5.33
2023-06-02T14:41:55.919Z,4.77
2023-06-02T14:44:24.185Z,4.40
2023-06-02T14:46:52.126Z,4.23
2023-06-02T14:49:21.441Z,4.07
2023-06-02T14:51:50.015Z,4.57
2023-06-02T14:54:18.032Z,3.57
2023-06-02T14:56:46.009Z,4.07
2023-06-02T14:59:15.301Z,3.30
2023-06-02T15:01:43.210Z,3.70
2023-06-02T15:04:11.211Z,3.33
2023-06-02T15:06:40.629Z,3.40
2023-06-02T15:09:08.762Z,4.27
2023-06-02T15:11:36.665Z,3.70
2023-06-02T15:14:04.603Z,5.13
2023-06-02T15:16:33.187Z,3.47
2023-06-02T15:19:01.262Z,3.47
2023-06-02T15:21:29.247Z,4.10
2023-06-02T15:23:58.542Z,3.87
2023-06-02T15:26:26.441Z,3.30
2023-06-02T15:28:54.310Z,3.33
2023-06-02T15:31:22.434Z,3.63
2023-06-02T15:33:50.317Z,3.20
2023-06-02T15:36:18.219Z,3.50
2023-06-02T15:38:46.111Z,3.30
2023-06-02T15:41:16.297Z,3.70
2023-06-02T15:43:44.188Z,3.03
2023-06-02T15:46:12.080Z,3.30
2023-06-02T15:48:39.992Z,3.47
2023-06-02T15:51:08.198Z,3.50
2023-06-02T15:53:36.085Z,2.77
2023-06-02T15:56:04.234Z,3.60
2023-06-02T15:58:33.630Z,3.30
2023-06-02T16:01:01.568Z,3.60
2023-06-02T16:03:29.490Z,3.00
2023-06-02T16:05:57.405Z,3.00
2023-06-02T16:08:25.497Z,3.43
2023-06-02T16:10:53.532Z,3.33
2023-06-02T16:13:23.496Z,3.17
2023-06-02T16:15:55.368Z,3.37
2023-06-02T16:18:24.846Z,3.10
2023-06-02T16:20:52.698Z,3.40
2023-06-02T16:23:20.601Z,3.40
2023-06-02T16:25:48.554Z,3.33
2023-06-02T16:28:16.584Z,3.03
2023-06-02T16:30:44.462Z,3.10
2023-06-02T16:33:13.803Z,3.60
2023-06-02T16:35:41.775Z,2.93
2023-06-02T16:38:11.300Z,3.70
2023-06-02T16:40:39.186Z,3.23
2023-06-02T16:43:07.140Z,3.40
2023-06-02T16:45:35.922Z,3.20
2023-06-02T16:48:03.878Z,3.00
2023-06-02T16:50:33.300Z,3.00
2023-06-02T16:53:01.169Z,3.43
2023-06-02T16:55:28.999Z,3.30
2023-06-02T16:57:59.277Z,3.03
2023-06-02T17:00:27.521Z,3.20
2023-06-02T17:02:56.450Z,2.60
2023-06-02T17:05:24.722Z,3.00
2023-06-02T17:07:54.102Z,2.83
2023-06-02T17:10:21.988Z,3.57
2023-06-02T17:12:49.935Z,2.80
2023-06-02T17:15:17.845Z,2.83
2023-06-02T17:17:45.798Z,3.20
2023-06-02T17:20:13.956Z,3.10
2023-06-02T17:22:41.876Z,2.87
2023-06-02T17:25:13.366Z,2.97
2023-06-02T17:27:41.600Z,3.17
2023-06-02T17:30:10.143Z,3.27
2023-06-02T17:32:38.202Z,2.90
2023-06-02T17:35:06.598Z,2.70
2023-06-02T17:37:35.130Z,2.77
2023-06-02T17:40:06.005Z,2.87
2023-06-02T17:42:35.598Z,2.90
2023-06-02T17:45:03.468Z,2.73
2023-06-02T17:47:31.324Z,2.60
2023-06-02T17:49:59.249Z,2.80
2023-06-02T17:52:27.924Z,3.63
2023-06-02T17:54:56.301Z,2.53
2023-06-02T17:57:24.367Z,3.30
2023-06-02T17:59:55.453Z,3.13
2023-06-02T18:02:23.852Z,2.40
2023-06-02T18:04:53.624Z,3.00
2023-06-02T18:07:25.012Z,2.63
2023-06-02T18:09:53.296Z,3.10
2023-06-02T18:12:21.290Z,3.13
2023-06-02T18:14:49.204Z,2.90
2023-06-02T18:17:19.395Z,2.93
2023-06-02T18:19:49.444Z,2.50
2023-06-02T18:22:17.406Z,3.50
2023-06-02T18:24:45.364Z,2.80
2023-06-02T18:27:13.448Z,2.70
2023-06-02T18:29:42.264Z,2.97
2023-06-02T18:32:10.879Z,2.90
2023-06-02T18:34:40.263Z,2.53
2023-06-02T18:37:08.492Z,2.60
2023-06-02T18:39:36.418Z,2.50
2023-06-02T18:42:04.551Z,2.33
2023-06-02T18:44:32.987Z,2.70
2023-06-02T18:47:01.863Z,2.83
2023-06-02T18:49:30.477Z,2.97
2023-06-02T18:52:01.886Z,2.70
2023-06-02T18:54:29.801Z,2.13
2023-06-02T18:57:00.047Z,2.37
2023-06-02T18:59:27.877Z,2.07
2023-06-02T19:01:55.834Z,2.83
2023-06-02T19:04:23.848Z,2.53
2023-06-02T19:06:51.682Z,2.83
2023-06-02T19:09:20.909Z,2.77
2023-06-02T19:11:48.777Z,2.50
2023-06-02T19:14:17.153Z,2.83
2023-06-02T19:16:45.047Z,2.70
2023-06-02T19:19:12.992Z,2.07
2023-06-02T19:21:42.334Z,2.87
2023-06-02T19:24:10.225Z,2.57
2023-06-02T19:26:39.440Z,2.60
2023-06-02T19:29:07.436Z,2.70
2023-06-02T19:31:35.338Z,3.10
2023-06-02T19:34:05.108Z,2.90
2023-06-02T19:36:35.286Z,2.47
2023-06-02T19:39:03.469Z,2.50
2023-06-02T19:41:31.344Z,2.70
2023-06-02T19:44:00.746Z,2.77
2023-06-02T19:46:28.765Z,2.60
2023-06-02T19:48:57.437Z,2.70
2023-06-02T19:51:25.391Z,2.87
2023-06-02T19:53:53.298Z,2.50
2023-06-02T19:56:21.289Z,2.53
2023-06-02T19:58:49.187Z,2.70
2023-06-02T20:01:18.415Z,2.67
2023-06-02T20:03:46.966Z,2.23
2023-06-02T20:06:14.956Z,2.60
2023-06-02T20:08:44.920Z,2.87
2023-06-02T20:11:13.145Z,2.80
2023-06-02T20:13:41.054Z,2.73
2023-06-02T20:16:09.026Z,2.43
2023-06-02T20:18:39.144Z,3.10
2023-06-02T20:21:07.355Z,3.13
2023-06-02T20:23:35.435Z,3.60
2023-06-02T20:26:03.329Z,2.77
2023-06-02T20:28:31.199Z,2.70
2023-06-02T20:30:59.113Z,2.57
2023-06-02T20:33:27.211Z,2.60
2023-06-02T20:36:01.031Z,2.57
2023-06-02T20:38:28.906Z,2.80
2023-06-02T20:40:56.870Z,2.87
2023-06-02T20:43:24.872Z,2.40
2023-06-02T20:45:53.210Z,2.30
2023-06-02T20:48:21.310Z,2.63
2023-06-02T20:50:49.248Z,2.83
2023-06-02T20:53:18.544Z,2.60
2023-06-02T20:55:46.778Z,3.20
2023-06-02T20:58:14.696Z,3.20
2023-06-02T21:00:42.610Z,2.80
2023-06-02T21:03:10.565Z,2.60
2023-06-02T21:05:38.499Z,2.93
2023-06-02T21:08:06.564Z,3.00
2023-06-02T21:10:35.855Z,3.20
2023-06-02T21:13:04.002Z,2.77
2023-06-02T21:15:33.021Z,2.60
2023-06-02T21:18:00.985Z,2.50
2023-06-02T21:20:29.075Z,3.17
2023-06-02T21:22:57.127Z,3.00
2023-06-02T21:25:25.024Z,3.47
2023-06-02T21:27:54.304Z,2.67
2023-06-02T21:30:22.512Z,2.43
2023-06-02T21:32:50.471Z,3.00
2023-06-02T21:35:19.592Z,2.97
2023-06-02T21:37:47.568Z,2.73
2023-06-02T21:40:15.568Z,2.70
2023-06-02T21:42:43.446Z,3.20
2023-06-02T21:45:13.207Z,2.73
2023-06-02T21:47:41.973Z,3.07
2023-06-02T21:50:10.638Z,2.93
2023-06-02T21:52:38.570Z,2.53
2023-06-02T21:55:07.304Z,2.83
2023-06-02T21:57:35.160Z,2.50
2023-06-02T22:00:05.765Z,2.70
2023-06-02T22:02:35.119Z,2.40
2023-06-02T22:05:03.139Z,2.57
2023-06-02T22:07:31.216Z,2.73
2023-06-02T22:09:59.103Z,2.30
2023-06-02T22:12:27.105Z,2.37
2023-06-02T22:14:54.997Z,2.70
2023-06-02T22:17:23.643Z,2.67
2023-06-02T22:19:53.047Z,2.77
2023-06-02T22:22:20.909Z,2.60
2023-06-02T22:24:48.896Z,2.90
2023-06-02T22:27:16.852Z,2.60
2023-06-02T22:29:44.821Z,2.43
2023-06-02T22:32:12.707Z,2.90
2023-06-02T22:34:40.681Z,2.93
2023-06-02T22:37:09.914Z,2.77
2023-06-02T22:39:37.812Z,2.63
2023-06-02T22:42:06.178Z,2.47
2023-06-02T22:44:34.288Z,3.30
2023-06-02T22:47:02.199Z,2.30
2023-06-02T22:49:30.122Z,2.60
2023-06-02T22:51:58.049Z,2.67
2023-06-02T22:54:27.298Z,3.33
2023-06-02T22:56:55.247Z,3.10
2023-06-02T22:59:23.120Z,3.20
2023-06-02T23:01:51.132Z,2.63
2023-06-02T23:04:19.240Z,2.83
2023-06-02T23:06:47.165Z,2.57
2023-06-02T23:09:15.149Z,2.60
2023-06-02T23:11:44.623Z,2.73
2023-06-02T23:14:12.509Z,2.53
2023-06-02T23:16:40.696Z,3.20
2023-06-02T23:19:08.674Z,2.43
2023-06-02T23:21:36.791Z,3.47
2023-06-02T23:24:04.892Z,3.03
2023-06-02T23:26:32.753Z,2.80
2023-06-02T23:29:01.963Z,2.67
2023-06-02T23:31:30.239Z,2.80
2023-06-02T23:33:58.204Z,2.63
2023-06-02T23:36:26.422Z,3.03
2023-06-02T23:38:54.311Z,2.97
2023-06-02T23:41:22.670Z,2.50
2023-06-02T23:43:50.686Z,2.50
2023-06-02T23:46:19.932Z,2.47
2023-06-02T23:48:47.968Z,2.80
2023-06-02T23:51:15.953Z,2.30
2023-06-02T23:53:43.832Z,2.73
2023-06-02T23:56:14.180Z,2.67
2023-06-02T23:58:42.292Z,3.00
